Terminal Aerodrome Forecast
Issued by NWS Cleveland, OH

Home | Current Version | Previous Version | Graphics & Text | Print | Product List | Glossary Off
Versions: 1 2 3 4 5 6 7 8 9 10 11 12 13 14 15 16 17 18 19 20 21

000
FTUS41 KCLE 260500
TAFYNG
TAF
KYNG 260536Z 2606/2706 22008KT P6SM OVC025
     FM260900 20006KT P6SM SKC
     FM261500 20010KT P6SM SCT250
     FM270000 18006KT P6SM BKN250=

USA.gov is the U.S. government's official web portal to all federal, state and local government web resources and services.